createdAt,value
2022-09-02T00:01:02.295Z,101544.81
2022-09-02T00:03:35.245Z,101545.28
2022-09-02T00:06:02.941Z,101546.47
2022-09-02T00:08:33.468Z,101544.03
2022-09-02T00:11:01.162Z,101549.50
2022-09-02T00:13:33.581Z,101544.03
2022-09-02T00:16:00.262Z,101545.06
2022-09-02T00:18:27.231Z,101550.53
2022-09-02T00:20:55.488Z,101542.66
2022-09-02T00:23:27.338Z,101541.09
2022-09-02T00:25:54.319Z,101541.59
2022-09-02T00:28:20.956Z,101537.31
2022-09-02T00:30:48.353Z,101541.53
2022-09-02T00:33:19.320Z,101534.00
2022-09-02T00:35:45.860Z,101526.97
2022-09-02T00:38:12.973Z,101525.56
2022-09-02T00:40:45.003Z,101529.47
2022-09-02T00:43:19.165Z,101522.63
2022-09-02T00:45:45.704Z,101522.25
2022-09-02T00:48:12.323Z,101525.31
2022-09-02T00:50:39.089Z,101516.72
2022-09-02T00:53:10.262Z,101517.06
2022-09-02T00:55:50.965Z,101520.09
2022-09-02T00:58:25.861Z,101516.69
2022-09-02T01:00:57.594Z,101510.69
2022-09-02T01:03:29.637Z,101512.88
2022-09-02T01:05:57.621Z,101516.78
2022-09-02T01:08:28.909Z,101511.47
2022-09-02T01:10:56.831Z,101511.63
2022-09-02T01:13:28.534Z,101511.94
2022-09-02T01:16:04.239Z,101510.22
2022-09-02T01:18:31.235Z,101505.22
2022-09-02T01:21:00.424Z,101512.72
2022-09-02T01:23:31.127Z,101515.59
2022-09-02T01:26:02.057Z,101512.19
2022-09-02T01:28:28.619Z,101514.22
2022-09-02T01:30:56.124Z,101513.50
2022-09-02T01:33:27.772Z,101511.97
2022-09-02T01:35:55.129Z,101497.63
2022-09-02T01:38:23.271Z,101502.38
2022-09-02T01:40:49.965Z,101501.69
2022-09-02T01:43:24.089Z,101502.69
2022-09-02T01:45:53.979Z,101502.00
2022-09-02T01:48:22.724Z,101497.69
2022-09-02T01:50:58.726Z,101498.19
2022-09-02T01:53:29.104Z,101501.38
2022-09-02T01:55:56.811Z,101500.66
2022-09-02T01:58:23.820Z,101500.09
2022-09-02T02:00:51.368Z,101498.69
2022-09-02T02:03:18.313Z,101496.28
2022-09-02T02:05:44.992Z,101499.31
2022-09-02T02:08:15.143Z,101499.63
2022-09-02T02:10:43.000Z,101501.13
2022-09-02T02:13:19.094Z,101494.97
2022-09-02T02:15:45.935Z,101499.88
2022-09-02T02:18:12.790Z,101498.31
2022-09-02T02:20:39.402Z,101498.44
2022-09-02T02:23:06.845Z,101504.34
2022-09-02T02:25:35.293Z,101502.09
2022-09-02T02:28:02.455Z,101494.38
2022-09-02T02:30:30.034Z,101489.53
2022-09-02T02:32:57.517Z,101495.13
2022-09-02T02:35:25.714Z,101491.69
2022-09-02T02:37:52.470Z,101486.41
2022-09-02T02:40:22.159Z,101492.16
2022-09-02T02:42:49.838Z,101492.47
2022-09-02T02:45:20.527Z,101482.88
2022-09-02T02:47:47.192Z,101487.94
2022-09-02T02:50:18.076Z,101490.09
2022-09-02T02:52:47.138Z,101487.84
2022-09-02T02:55:15.366Z,101489.84
2022-09-02T02:57:43.674Z,101478.38
2022-09-02T03:00:18.519Z,101486.84
2022-09-02T03:02:47.218Z,101474.38
2022-09-02T03:05:16.377Z,101481.69
2022-09-02T03:07:42.952Z,101478.97
2022-09-02T03:10:13.023Z,101477.25
2022-09-02T03:12:41.548Z,101476.56
2022-09-02T03:15:12.132Z,101475.84
2022-09-02T03:17:39.857Z,101478.88
2022-09-02T03:20:07.906Z,101480.03
2022-09-02T03:22:40.107Z,101474.00
2022-09-02T03:25:09.517Z,101477.88
2022-09-02T03:27:40.408Z,101475.47
2022-09-02T03:30:13.841Z,101483.06
2022-09-02T03:32:40.621Z,101469.75
2022-09-02T03:35:12.887Z,101470.06
2022-09-02T03:37:39.740Z,101472.06
2022-09-02T03:40:11.584Z,101470.66
2022-09-02T03:42:38.675Z,101477.09
2022-09-02T03:45:12.858Z,101468.22
2022-09-02T03:47:47.243Z,101470.78
2022-09-02T03:50:13.801Z,101469.78
2022-09-02T03:52:40.394Z,101463.34
2022-09-02T03:55:11.721Z,101467.06
2022-09-02T03:57:38.278Z,101465.75
2022-09-02T04:00:08.330Z,101457.59
2022-09-02T04:02:41.908Z,101453.88
2022-09-02T04:05:15.796Z,101454.72
2022-09-02T04:07:46.929Z,101454.88
2022-09-02T04:10:15.008Z,101456.59
2022-09-02T04:12:41.818Z,101455.03
2022-09-02T04:15:11.515Z,101448.56
2022-09-02T04:17:40.326Z,101446.84
2022-09-02T04:20:11.073Z,101448.72
2022-09-02T04:22:37.665Z,101445.13
2022-09-02T04:25:05.826Z,101443.28
2022-09-02T04:27:34.533Z,101443.97
2022-09-02T04:30:01.853Z,101446.25
2022-09-02T04:32:34.779Z,101446.09
2022-09-02T04:35:06.482Z,101442.22
2022-09-02T04:37:33.879Z,101444.50
2022-09-02T04:40:00.650Z,101441.47
2022-09-02T04:42:27.699Z,101443.19
2022-09-02T04:44:57.773Z,101443.03
2022-09-02T04:47:25.326Z,101444.78
2022-09-02T04:49:52.341Z,101438.31
2022-09-02T04:52:20.809Z,101441.91
2022-09-02T04:54:48.527Z,101447.19
2022-09-02T04:57:15.314Z,101441.59
2022-09-02T04:59:42.369Z,101448.63
2022-09-02T05:02:12.046Z,101442.16
2022-09-02T05:04:38.909Z,101441.00
2022-09-02T05:07:11.877Z,101442.84
2022-09-02T05:09:44.359Z,101442.72
2022-09-02T05:12:11.567Z,101439.97
2022-09-02T05:14:48.845Z,101443.41
2022-09-02T05:17:17.197Z,101448.72
2022-09-02T05:19:45.183Z,101447.53
2022-09-02T05:22:13.766Z,101446.25
2022-09-02T05:24:44.311Z,101449.53
2022-09-02T05:27:16.101Z,101451.81
2022-09-02T05:29:45.452Z,101453.22
2022-09-02T05:32:13.406Z,101454.63
2022-09-02T05:34:42.161Z,101455.88
2022-09-02T05:37:08.771Z,101446.53
2022-09-02T05:39:36.798Z,101440.94
2022-09-02T05:42:05.674Z,101442.34
2022-09-02T05:44:35.986Z,101450.34
2022-09-02T05:47:04.181Z,101447.47
2022-09-02T05:49:31.274Z,101444.44
2022-09-02T05:52:04.935Z,101454.19
2022-09-02T05:54:41.118Z,101453.16
2022-09-02T05:57:14.058Z,101450.28
2022-09-02T05:59:58.878Z,101447.94
2022-09-02T06:02:40.192Z,101451.22
2022-09-02T06:05:12.031Z,101455.66
2022-09-02T06:07:42.325Z,101441.91
2022-09-02T06:10:08.880Z,101445.31
2022-09-02T06:12:39.441Z,101445.00
2022-09-02T06:15:10.538Z,101442.69
2022-09-02T06:17:39.916Z,101434.19
2022-09-02T06:20:08.343Z,101449.06
2022-09-02T06:22:36.671Z,101441.56
2022-09-02T06:25:05.237Z,101441.09
2022-09-02T06:27:31.920Z,101443.19
2022-09-02T06:30:00.766Z,101451.78
2022-09-02T06:32:28.661Z,101447.03
2022-09-02T06:35:01.972Z,101442.97
2022-09-02T06:37:33.046Z,101439.06
2022-09-02T06:39:59.677Z,101438.91
2022-09-02T06:42:28.393Z,101437.91
2022-09-02T06:45:20.336Z,101435.69
2022-09-02T06:47:48.101Z,101441.69
2022-09-02T06:50:15.581Z,101432.16
2022-09-02T06:52:42.735Z,101434.25
2022-09-02T06:55:12.065Z,101429.34
2022-09-02T06:57:39.472Z,101432.47
2022-09-02T07:00:10.874Z,101435.56
2022-09-02T07:02:38.376Z,101432.34
2022-09-02T07:05:15.126Z,101433.75
2022-09-02T07:07:45.970Z,101423.34
2022-09-02T07:10:15.171Z,101424.56
2022-09-02T07:12:45.826Z,101421.19
2022-09-02T07:15:16.968Z,101412.19
2022-09-02T07:17:44.157Z,101418.56
2022-09-02T07:20:24.316Z,101413.97
2022-09-02T07:22:56.107Z,101423.22
2022-09-02T07:25:26.264Z,101421.53
2022-09-02T07:27:54.551Z,101419.03
2022-09-02T07:30:22.057Z,101417.19
2022-09-02T07:32:53.904Z,101421.81
2022-09-02T07:35:31.118Z,101425.41
2022-09-02T07:37:58.575Z,101418.25
2022-09-02T07:40:26.289Z,101414.66
2022-09-02T07:42:54.496Z,101410.09
2022-09-02T07:45:23.798Z,101409.06
2022-09-02T07:47:50.910Z,101406.34
2022-09-02T07:50:21.306Z,101408.06
2022-09-02T07:52:58.400Z,101405.16
2022-09-02T07:55:34.983Z,101406.69
2022-09-02T07:58:04.811Z,101404.44
2022-09-02T08:00:32.258Z,101399.63
2022-09-02T08:05:58.123Z,101404.03
2022-09-02T08:08:27.498Z,101400.94
2022-09-02T08:10:55.162Z,101400.56
2022-09-02T08:13:26.779Z,101402.53
2022-09-02T08:15:54.353Z,101398.84
2022-09-02T08:18:22.670Z,101406.53
2022-09-02T08:20:49.395Z,101409.72
2022-09-02T08:23:35.616Z,101402.81
2022-09-02T08:26:05.389Z,101391.03
2022-09-02T08:28:32.155Z,101399.69
2022-09-02T08:30:59.474Z,101386.56
2022-09-02T08:33:28.777Z,101395.25
2022-09-02T08:35:55.318Z,101382.59
2022-09-02T08:38:22.348Z,101382.44
2022-09-02T08:40:50.953Z,101388.41
2022-09-02T08:43:27.708Z,101380.22
2022-09-02T08:45:58.679Z,101380.19
2022-09-02T08:48:33.738Z,101375.91
2022-09-02T08:51:27.009Z,101372.69
2022-09-02T08:54:06.019Z,101365.00
2022-09-02T08:56:32.586Z,101364.47
2022-09-02T08:59:03.601Z,101362.97
2022-09-02T09:01:32.893Z,101366.88
2022-09-02T09:04:15.889Z,101374.81
2022-09-02T09:06:48.336Z,101371.56
2022-09-02T09:09:26.907Z,101374.03
2022-09-02T09:12:08.934Z,101378.69
2022-09-02T09:14:58.306Z,101371.63
2022-09-02T09:17:47.463Z,101372.66
2022-09-02T09:20:24.385Z,101381.44
2022-09-02T09:22:56.660Z,101382.19
2022-09-02T09:25:29.675Z,101373.97
2022-09-02T09:27:58.070Z,101374.22
2022-09-02T09:30:25.113Z,101366.22
2022-09-02T09:32:57.547Z,101364.41
2022-09-02T09:35:26.491Z,101362.94
2022-09-02T09:37:56.528Z,101364.88
2022-09-02T09:40:32.747Z,101368.91
2022-09-02T09:43:30.876Z,101361.91
2022-09-02T09:45:57.390Z,101351.94
2022-09-02T09:48:31.446Z,101363.06
2022-09-02T09:50:58.111Z,101352.84
2022-09-02T09:53:25.814Z,101345.59
2022-09-02T09:55:52.508Z,101354.53
2022-09-02T09:58:20.617Z,101349.41
2022-09-02T10:00:47.348Z,101346.19
2022-09-02T10:03:32.832Z,101341.72
2022-09-02T10:06:17.981Z,101341.06
2022-09-02T10:09:00.472Z,101345.50
2022-09-02T10:11:36.789Z,101337.38
2022-09-02T10:14:11.849Z,101335.59
2022-09-02T10:17:09.741Z,101332.81
2022-09-02T10:19:47.701Z,101336.78
2022-09-02T10:22:44.770Z,101331.59
2022-09-02T10:25:41.705Z,101322.84
2022-09-02T10:29:01.961Z,101326.56
2022-09-02T10:32:03.901Z,101321.13
2022-09-02T10:34:46.285Z,101315.47
2022-09-02T10:37:24.537Z,101308.13
2022-09-02T10:40:08.975Z,101314.78
2022-09-02T10:42:44.589Z,101307.22
2022-09-02T10:45:20.231Z,101307.13
2022-09-02T10:48:08.221Z,101293.66
2022-09-02T10:50:48.120Z,101302.13
2022-09-02T10:54:04.956Z,101296.88
2022-09-02T10:56:38.870Z,101299.16
2022-09-02T10:59:13.498Z,101303.28
2022-09-02T11:02:02.986Z,101303.56
2022-09-02T11:04:42.017Z,101289.13
2022-09-02T11:07:14.208Z,101291.56
2022-09-02T11:09:46.094Z,101277.81
2022-09-02T11:12:19.722Z,101288.34
2022-09-02T11:14:58.494Z,101286.72
2022-09-02T11:17:36.071Z,101279.00
2022-09-02T11:20:21.286Z,101273.06
2022-09-02T11:23:11.033Z,101275.38
2022-09-02T11:26:40.491Z,101259.91
2022-09-02T11:29:14.395Z,101261.03
2022-09-02T11:31:49.291Z,101270.59
2022-09-02T11:34:36.910Z,101267.44
2022-09-02T11:37:10.736Z,101265.59
2022-09-02T11:40:11.503Z,101257.50
2022-09-02T11:42:52.988Z,101245.59
2022-09-02T11:45:39.489Z,101236.03
2022-09-02T11:48:22.762Z,101244.88
2022-09-02T11:51:28.030Z,101241.59
2022-09-02T11:54:01.074Z,101242.34
2022-09-02T11:56:35.538Z,101241.84
2022-09-02T11:59:03.700Z,101236.53
2022-09-02T12:01:33.311Z,101233.88
2022-09-02T12:07:19.710Z,101238.09
2022-09-02T12:09:54.993Z,101234.56
2022-09-02T12:12:36.541Z,101236.25
2022-09-02T12:15:13.131Z,101229.94
2022-09-02T12:17:51.889Z,101222.56
2022-09-02T12:20:36.456Z,101217.22
2022-09-02T12:23:03.797Z,101221.09
2022-09-02T12:25:33.980Z,101217.75
2022-09-02T12:28:24.310Z,101214.66
2022-09-02T12:30:55.735Z,101213.81
2022-09-02T12:33:53.643Z,101209.22
2022-09-02T12:36:42.298Z,101204.13
2022-09-02T12:39:30.627Z,101208.47
2022-09-02T12:42:07.898Z,101198.88
2022-09-02T12:44:58.819Z,101192.59
2022-09-02T12:47:26.485Z,101186.91
2022-09-02T12:50:10.594Z,101197.06
2022-09-02T12:52:54.063Z,101197.72
2022-09-02T12:55:26.032Z,101191.09
2022-09-02T12:58:06.025Z,101193.97
2022-09-02T13:00:54.289Z,101185.38
2022-09-02T13:03:39.242Z,101190.09
2022-09-02T13:06:14.563Z,101174.09
2022-09-02T13:08:58.000Z,101165.09
2022-09-02T13:11:52.094Z,101172.84
2022-09-02T13:14:53.850Z,101156.53
2022-09-02T13:17:44.100Z,101167.09
2022-09-02T13:20:29.380Z,101167.94
2022-09-02T13:23:35.200Z,101156.19
2022-09-02T13:26:49.728Z,101161.00
2022-09-02T13:29:36.151Z,101170.06
2022-09-02T13:32:23.355Z,101158.28
2022-09-02T13:34:55.186Z,101148.41
2022-09-02T13:37:38.574Z,101150.78
2022-09-02T13:40:16.670Z,101151.19
2022-09-02T13:42:49.255Z,101151.59
2022-09-02T13:45:25.907Z,101154.50
2022-09-02T13:47:58.655Z,101148.94
2022-09-02T13:50:29.991Z,101144.09
2022-09-02T13:55:57.159Z,101138.44
2022-09-02T13:58:34.628Z,101142.66
2022-09-02T14:01:33.166Z,101139.72
2022-09-02T14:04:16.510Z,101139.22
2022-09-02T14:06:46.406Z,101135.59
2022-09-02T14:09:25.912Z,101122.66
2022-09-02T14:11:53.876Z,101122.31
2022-09-02T14:14:25.929Z,101104.50
2022-09-02T14:16:52.886Z,101112.34
2022-09-02T14:19:22.677Z,101113.88
2022-09-02T14:21:57.791Z,101113.19
2022-09-02T14:24:37.336Z,101108.84
2022-09-02T14:27:04.106Z,101108.13
2022-09-02T14:29:33.744Z,101092.50
2022-09-02T14:32:11.996Z,101096.34
2022-09-02T14:34:45.366Z,101100.75
2022-09-02T14:37:21.416Z,101093.22
2022-09-02T14:40:12.613Z,101086.59
2022-09-02T14:42:45.267Z,101074.03
2022-09-02T14:45:13.533Z,101078.75
2022-09-02T14:47:41.246Z,101082.66
2022-09-02T14:50:15.389Z,101074.28
2022-09-02T14:52:48.257Z,101081.22
2022-09-02T14:55:47.199Z,101082.44
2022-09-02T14:58:15.195Z,101075.44
2022-09-02T15:00:55.567Z,101073.19
2022-09-02T15:03:24.153Z,101072.75
2022-09-02T15:05:52.240Z,101063.91
2022-09-02T15:08:18.802Z,101071.53
2022-09-02T15:10:46.010Z,101060.97
2022-09-02T15:13:32.681Z,101060.47
2022-09-02T15:15:59.558Z,101063.00
2022-09-02T15:18:26.390Z,101063.66
2022-09-02T15:20:54.087Z,101055.81
2022-09-02T15:23:24.149Z,101063.25
2022-09-02T15:25:52.855Z,101061.28
2022-09-02T15:28:19.341Z,101054.63
2022-09-02T15:30:45.922Z,101051.84
2022-09-02T15:33:19.947Z,101051.25
2022-09-02T15:35:47.393Z,101057.25
2022-09-02T15:38:13.910Z,101049.66
2022-09-02T15:40:40.469Z,101049.41
2022-09-02T15:43:06.985Z,101034.97
2022-09-02T15:45:33.782Z,101036.13
2022-09-02T15:48:00.351Z,101044.84
2022-09-02T15:50:31.658Z,101039.69
2022-09-02T15:52:58.218Z,101035.84
2022-09-02T15:55:29.240Z,101030.44
2022-09-02T15:57:56.494Z,101031.66
2022-09-02T16:00:23.363Z,101034.53
2022-09-02T16:02:54.691Z,101030.47
2022-09-02T16:05:25.559Z,101028.06
2022-09-02T16:07:54.744Z,101023.94
2022-09-02T16:10:21.285Z,101019.00
2022-09-02T16:12:48.373Z,101013.81
2022-09-02T16:15:20.106Z,101016.38
2022-09-02T16:17:46.611Z,101015.03
2022-09-02T16:20:14.164Z,101012.63
2022-09-02T16:22:42.627Z,101005.44
2022-09-02T16:25:10.493Z,101009.44
2022-09-02T16:27:51.967Z,101010.16
2022-09-02T16:30:19.315Z,101000.25
2022-09-02T16:32:46.495Z,100998.69
2022-09-02T16:35:13.552Z,100996.88
2022-09-02T16:37:40.438Z,101002.28
2022-09-02T16:40:07.942Z,100992.38
2022-09-02T16:42:38.074Z,100994.41
2022-09-02T16:45:05.591Z,100992.78
2022-09-02T16:47:32.333Z,100986.47
2022-09-02T16:49:58.893Z,100996.59
2022-09-02T16:52:25.376Z,100980.66
2022-09-02T16:54:53.667Z,100993.31
2022-09-02T16:57:20.269Z,100992.94
2022-09-02T16:59:46.841Z,100992.56
2022-09-02T17:02:13.437Z,100985.56
2022-09-02T17:04:41.319Z,100983.50
2022-09-02T17:07:08.032Z,100981.44
2022-09-02T17:09:35.062Z,100985.50
2022-09-02T17:12:01.661Z,100990.06
2022-09-02T17:14:29.615Z,100978.59
2022-09-02T17:16:56.513Z,100991.44
2022-09-02T17:19:27.187Z,100993.59
2022-09-02T17:21:56.472Z,100994.06
2022-09-02T17:24:30.799Z,100985.38
2022-09-02T17:26:57.668Z,100983.28
2022-09-02T17:32:16.366Z,100981.91
2022-09-02T17:34:44.817Z,100980.19
2022-09-02T17:37:11.501Z,100977.50
2022-09-02T17:39:38.067Z,100985.03
2022-09-02T17:42:06.459Z,100984.50
2022-09-02T17:44:38.325Z,100987.53
2022-09-02T17:47:07.978Z,100996.75
2022-09-02T17:49:36.730Z,100985.75
2022-09-02T17:52:08.145Z,100982.00
2022-09-02T17:55:00.357Z,100984.22
2022-09-02T17:57:48.703Z,100984.50
2022-09-02T18:00:22.227Z,100989.03
2022-09-02T18:03:28.521Z,100982.28
2022-09-02T18:06:01.929Z,100986.16
2022-09-02T18:08:33.003Z,100986.44
2022-09-02T18:11:05.269Z,100980.31
2022-09-02T18:13:54.264Z,100979.34
2022-09-02T18:16:28.420Z,100973.72
2022-09-02T18:19:13.163Z,100988.00
2022-09-02T18:21:53.119Z,100981.03
2022-09-02T18:24:40.881Z,100982.31
2022-09-02T18:27:20.019Z,100983.44
2022-09-02T18:30:02.135Z,100985.81
2022-09-02T18:32:53.247Z,100978.84
2022-09-02T18:35:43.429Z,100980.38
2022-09-02T18:38:10.026Z,100985.09
2022-09-02T18:40:44.050Z,100982.97
2022-09-02T18:43:36.641Z,100984.25
2022-09-02T18:46:05.077Z,100985.94
2022-09-02T18:48:35.183Z,100988.94
2022-09-02T18:51:12.983Z,100994.91
2022-09-02T18:53:51.341Z,100995.97
2022-09-02T18:56:22.473Z,100992.16
2022-09-02T18:58:57.643Z,100993.88
2022-09-02T19:01:25.304Z,100993.25
2022-09-02T19:03:59.301Z,100991.50
2022-09-02T19:06:29.174Z,101001.69
2022-09-02T19:08:59.324Z,100997.03
2022-09-02T19:11:27.220Z,101003.13
2022-09-02T19:14:13.386Z,101008.84
2022-09-02T19:16:39.993Z,101012.25
2022-09-02T19:19:06.630Z,101012.22
2022-09-02T19:21:43.434Z,101012.22
2022-09-02T19:24:33.983Z,101013.91
2022-09-02T19:27:05.859Z,101019.34
2022-09-02T19:29:41.158Z,101013.19
2022-09-02T19:32:08.315Z,101009.56
2022-09-02T19:34:41.996Z,101011.66
2022-09-02T19:37:11.662Z,101011.81
2022-09-02T19:39:38.347Z,101010.72
2022-09-02T19:42:09.139Z,101017.03
2022-09-02T19:44:40.039Z,101019.56
2022-09-02T19:49:53.890Z,101011.88
2022-09-02T19:52:21.440Z,101016.28
2022-09-02T19:54:49.693Z,101011.38
2022-09-02T19:57:16.245Z,101015.59
2022-09-02T19:59:42.736Z,101009.66
2022-09-02T20:02:09.306Z,101017.44
2022-09-02T20:04:37.989Z,101018.69
2022-09-02T20:07:04.535Z,101015.09
2022-09-02T20:09:31.012Z,101021.06
2022-09-02T20:11:58.468Z,101011.75
2022-09-02T20:14:26.241Z,101010.50
2022-09-02T20:17:00.118Z,101018.09
2022-09-02T20:19:26.926Z,101016.41
2022-09-02T20:21:53.462Z,101028.44
2022-09-02T20:24:31.177Z,101024.66
2022-09-02T20:27:20.285Z,101020.84
2022-09-02T20:29:59.000Z,101019.16
2022-09-02T20:32:42.329Z,101018.50
2022-09-02T20:35:40.018Z,101023.56
2022-09-02T20:38:26.037Z,101017.41
2022-09-02T20:41:01.304Z,101017.16
2022-09-02T20:43:41.568Z,101013.13
2022-09-02T20:46:13.974Z,101010.09
2022-09-02T20:48:40.549Z,101011.53
2022-09-02T20:51:32.345Z,101004.94
2022-09-02T20:54:36.115Z,101003.00
2022-09-02T20:57:36.875Z,101010.16
2022-09-02T21:00:12.431Z,101005.25
2022-09-02T21:03:00.896Z,101003.88
2022-09-02T21:05:42.237Z,101002.97
2022-09-02T21:08:22.131Z,101007.16
2022-09-02T21:10:53.954Z,100998.47
2022-09-02T21:13:40.232Z,100993.75
2022-09-02T21:16:19.677Z,100997.94
2022-09-02T21:19:14.779Z,100997.88
2022-09-02T21:21:49.200Z,101001.03
2022-09-02T21:24:24.754Z,101002.44
2022-09-02T21:26:58.480Z,101002.16
2022-09-02T21:29:30.822Z,100998.50
2022-09-02T21:32:06.047Z,100997.41
2022-09-02T21:34:43.043Z,101003.47
2022-09-02T21:37:12.267Z,101002.13
2022-09-02T21:39:44.939Z,101000.81
2022-09-02T21:42:23.732Z,101000.34
2022-09-02T21:45:08.877Z,101005.75
2022-09-02T21:47:42.026Z,101002.56
2022-09-02T21:50:28.922Z,101005.41
2022-09-02T21:53:19.315Z,101006.84
2022-09-02T21:55:52.520Z,101006.56
2022-09-02T21:58:30.325Z,101004.22
2022-09-02T22:01:12.139Z,101001.84
2022-09-02T22:03:50.728Z,100996.94
2022-09-02T22:06:36.634Z,100996.81
2022-09-02T22:09:11.461Z,100995.50
2022-09-02T22:11:43.752Z,100998.81
2022-09-02T22:14:18.979Z,100997.69
2022-09-02T22:16:45.994Z,100989.16
2022-09-02T22:19:13.504Z,100990.19
2022-09-02T22:21:49.081Z,100990.97
2022-09-02T22:24:37.200Z,100989.34
2022-09-02T22:27:25.516Z,100989.72
2022-09-02T22:30:03.005Z,100989.44
2022-09-02T22:32:35.703Z,100993.78
2022-09-02T22:35:09.732Z,100988.03
2022-09-02T22:37:58.903Z,100989.44
2022-09-02T22:40:32.354Z,100986.03
2022-09-02T22:43:07.034Z,100981.97
2022-09-02T22:45:57.538Z,100987.97
2022-09-02T22:48:52.464Z,100984.28
2022-09-02T22:51:45.682Z,100979.53
2022-09-02T22:54:12.396Z,100983.88
2022-09-02T22:57:08.237Z,100988.16
2022-09-02T22:59:48.716Z,100979.66
2022-09-02T23:02:38.261Z,100982.09
2022-09-02T23:05:45.265Z,100972.75
2022-09-02T23:08:14.121Z,100968.66
2022-09-02T23:10:50.853Z,100971.97
2022-09-02T23:13:43.773Z,100970.44
2022-09-02T23:16:28.943Z,100980.06
2022-09-02T23:19:22.180Z,100970.31
2022-09-02T23:22:10.039Z,100970.69
2022-09-02T23:25:11.028Z,100974.66
2022-09-02T23:27:44.287Z,100966.63
2022-09-02T23:30:12.204Z,100970.41
2022-09-02T23:33:02.147Z,100968.38
2022-09-02T23:35:40.834Z,100970.13
2022-09-02T23:38:22.287Z,100971.88
2022-09-02T23:41:06.473Z,100957.91
2022-09-02T23:43:34.725Z,100962.88
2022-09-02T23:46:20.592Z,100960.84
2022-09-02T23:49:05.382Z,100953.16
2022-09-02T23:52:07.250Z,100946.19
2022-09-02T23:54:47.511Z,100950.78
2022-09-02T23:57:30.041Z,100956.63
